Metar Flugplatz Niederstetten

ETHN 250020Z 29006KT 8000 OVC002 14/14 Q1018 AMB



Temperatur Niederstetten
14 Grad Celsius

QNH Niederstetten
1018
==============================================================

TAF Niederstetten:

TAF ETHN 291027Z 2911/3002 24010KT 9999 NSW FEW240 TEMPO 2911/2916 26012G22KT 9999 NSW SCT035 BKN240



Alle Angaben ohne Gewähr